Aérodrome :
LOGIN :

S'inscrire | Disclaimer

   EN    FR    IT 

 










Légende :    VFR   VFR Marginal   IFR   IFR Intensif   IFR Très Intensif
Visi : 
Plafond : 
>= 8 km
>= 3000ft
5 à 8 km
1000 à 3000 ft
1500m à 5 km
500 à 1000 ft
800 à 1500m
200 à 500 ft
< 800m
< 200 ft
Symboles :   Orages  Brouillard  Fortes neiges  Fortes précipitations  Vent > 20 kt
SIGMETs :   Divers  Orages  Givrage  Turbulence  Onde Orograph.  Cendres Volcan.






- Altitude de l'aérodrome : 15 ft
- Code IATA : ZTH


LGZA - Dionysios Solomos

DERNIER METAR :
  • 141250Z 32013KT 7000 -RA FEW018 SCT020 BKN070 14/11 Q0996

METARs EXPIRÉS :
  • 141150Z 33012KT 9999 FEW018 SCT020 BKN070 15/10 Q0995
  • 141050Z 30004KT 9999 FEW018 SCT020 BKN070 13/08 Q0995

TAF TAF LGZA
Valide du 14 à 12h jusqu'au 14 à 21h UTC


141100Z 1412/1421 32012KT 9999 SCT020 SCT070
BECMG 1412/1414 31012G22KT
TEMPO 1415/1418 33018G28KT
PROB40
TEMPO 1412/1415 4000 RA SCT012 BKN020 OVC070
PROB30
TEMPO 1412/1415 3000 TSRA SCT010 FEW016CB BKN020 OVC080



MET'MAP, la Météo Aéronautique d'un coup d'oeil ! - Copyright ORBIFLY Décembre 2007 - Disclaimer

ORBIFLY MET'MAP TEAM :

Programmation & Développement : Alexandra Zaïnal
Sur une idée originale de : Baudouin d'Aumeries
Assistance à la programmation : Marc-Olivier Méhu
Soutien technique & logistique : Manuel Goepfert

Contact : metmap@orbifly.com




SOURCES & CREDITS :

   NOAA